sensor_id;sensor_type;location;lat;lon;timestamp;temperature;humidity
51655;DHT22;37732;53.106;7.030;2022-11-28T00:01:22;6.20;99.90
51655;DHT22;37732;53.106;7.030;2022-11-28T00:03:49;6.10;99.90
51655;DHT22;37732;53.106;7.030;2022-11-28T00:06:14;6.10;99.90
51655;DHT22;37732;53.106;7.030;2022-11-28T00:08:40;6.10;99.90
51655;DHT22;37732;53.106;7.030;2022-11-28T00:11:09;6.10;99.90
51655;DHT22;37732;53.106;7.030;2022-11-28T00:13:35;6.40;99.90
51655;DHT22;37732;53.106;7.030;2022-11-28T00:16:02;6.10;99.90
51655;DHT22;37732;53.106;7.030;2022-11-28T00:18:29;6.10;99.90
51655;DHT22;37732;53.106;7.030;2022-11-28T00:20:59;6.10;99.90
51655;DHT22;37732;53.106;7.030;2022-11-28T00:23:26;6.10;99.90
51655;DHT22;37732;53.106;7.030;2022-11-28T00:26:03;6.10;99.90
51655;DHT22;37732;53.106;7.030;2022-11-28T00:28:30;6.20;99.90
51655;DHT22;37732;53.106;7.030;2022-11-28T00:30:56;6.10;99.90
51655;DHT22;37732;53.106;7.030;2022-11-28T00:33:21;6.20;99.90
51655;DHT22;37732;53.106;7.030;2022-11-28T00:35:47;6.30;99.90
51655;DHT22;37732;53.106;7.030;2022-11-28T00:38:13;6.20;99.90
51655;DHT22;37732;53.106;7.030;2022-11-28T00:40:39;6.60;99.90
51655;DHT22;37732;53.106;7.030;2022-11-28T00:43:06;6.20;99.90
51655;DHT22;37732;53.106;7.030;2022-11-28T00:45:32;6.30;99.90
51655;DHT22;37732;53.106;7.030;2022-11-28T00:47:58;6.20;99.90
51655;DHT22;37732;53.106;7.030;2022-11-28T00:50:24;6.90;99.90
51655;DHT22;37732;53.106;7.030;2022-11-28T00:52:49;6.20;99.90
51655;DHT22;37732;53.106;7.030;2022-11-28T00:55:15;6.20;99.90
51655;DHT22;37732;53.106;7.030;2022-11-28T00:57:41;6.20;99.90
51655;DHT22;37732;53.106;7.030;2022-11-28T01:00:08;6.20;99.90
51655;DHT22;37732;53.106;7.030;2022-11-28T01:02:34;6.20;99.90
51655;DHT22;37732;53.106;7.030;2022-11-28T01:05:00;6.20;99.90
51655;DHT22;37732;53.106;7.030;2022-11-28T01:07:26;6.20;99.90
51655;DHT22;37732;53.106;7.030;2022-11-28T01:09:55;6.20;99.90
51655;DHT22;37732;53.106;7.030;2022-11-28T01:12:20;6.40;99.90
51655;DHT22;37732;53.106;7.030;2022-11-28T01:14:46;6.30;99.90
51655;DHT22;37732;53.106;7.030;2022-11-28T01:17:12;6.30;99.90
51655;DHT22;37732;53.106;7.030;2022-11-28T01:19:37;6.30;99.90
51655;DHT22;37732;53.106;7.030;2022-11-28T01:22:03;6.20;99.90
51655;DHT22;37732;53.106;7.030;2022-11-28T01:24:31;6.20;99.90
51655;DHT22;37732;53.106;7.030;2022-11-28T01:26:57;6.30;99.90
51655;DHT22;37732;53.106;7.030;2022-11-28T01:29:23;6.30;99.90
51655;DHT22;37732;53.106;7.030;2022-11-28T01:31:48;6.30;99.90
51655;DHT22;37732;53.106;7.030;2022-11-28T01:34:14;6.30;99.90
51655;DHT22;37732;53.106;7.030;2022-11-28T01:36:40;6.40;99.90
51655;DHT22;37732;53.106;7.030;2022-11-28T01:39:06;6.20;99.90
51655;DHT22;37732;53.106;7.030;2022-11-28T01:41:31;6.40;99.90
51655;DHT22;37732;53.106;7.030;2022-11-28T01:46:40;6.20;99.90
51655;DHT22;37732;53.106;7.030;2022-11-28T01:49:21;6.20;99.90
51655;DHT22;37732;53.106;7.030;2022-11-28T01:51:53;6.20;99.90
51655;DHT22;37732;53.106;7.030;2022-11-28T01:54:21;6.20;99.90
51655;DHT22;37732;53.106;7.030;2022-11-28T01:56:57;6.20;99.90
51655;DHT22;37732;53.106;7.030;2022-11-28T01:59:26;6.20;99.90
51655;DHT22;37732;53.106;7.030;2022-11-28T02:01:52;6.20;99.90
51655;DHT22;37732;53.106;7.030;2022-11-28T02:04:18;6.20;99.90
51655;DHT22;37732;53.106;7.030;2022-11-28T02:06:44;6.20;99.90
51655;DHT22;37732;53.106;7.030;2022-11-28T02:09:12;6.20;99.90
51655;DHT22;37732;53.106;7.030;2022-11-28T02:11:48;6.30;99.90
51655;DHT22;37732;53.106;7.030;2022-11-28T02:22:40;6.20;99.90
51655;DHT22;37732;53.106;7.030;2022-11-28T02:25:30;6.20;99.90
51655;DHT22;37732;53.106;7.030;2022-11-28T02:33:35;6.20;99.90
51655;DHT22;37732;53.106;7.030;2022-11-28T02:36:21;6.20;99.90
51655;DHT22;37732;53.106;7.030;2022-11-28T02:49:48;6.30;99.90
51655;DHT22;37732;53.106;7.030;2022-11-28T02:52:21;6.50;99.90
51655;DHT22;37732;53.106;7.030;2022-11-28T02:54:50;6.20;99.90
51655;DHT22;37732;53.106;7.030;2022-11-28T02:57:16;6.40;99.90
51655;DHT22;37732;53.106;7.030;2022-11-28T03:02:16;6.60;99.90
51655;DHT22;37732;53.106;7.030;2022-11-28T03:07:23;6.30;99.90
51655;DHT22;37732;53.106;7.030;2022-11-28T03:10:13;6.30;99.90
51655;DHT22;37732;53.106;7.030;2022-11-28T03:15:38;6.40;99.90
51655;DHT22;37732;53.106;7.030;2022-11-28T03:18:10;6.60;99.90
51655;DHT22;37732;53.106;7.030;2022-11-28T03:20:44;6.40;99.90
51655;DHT22;37732;53.106;7.030;2022-11-28T03:28:39;6.50;99.90
51655;DHT22;37732;53.106;7.030;2022-11-28T03:31:15;6.50;99.90
51655;DHT22;37732;53.106;7.030;2022-11-28T03:33:44;6.60;99.90
51655;DHT22;37732;53.106;7.030;2022-11-28T03:36:23;6.60;99.90
51655;DHT22;37732;53.106;7.030;2022-11-28T03:38:57;6.60;99.90
51655;DHT22;37732;53.106;7.030;2022-11-28T03:41:33;6.60;99.90
51655;DHT22;37732;53.106;7.030;2022-11-28T03:44:01;6.60;99.90
51655;DHT22;37732;53.106;7.030;2022-11-28T03:46:35;6.60;99.90
51655;DHT22;37732;53.106;7.030;2022-11-28T03:49:03;6.70;99.90
51655;DHT22;37732;53.106;7.030;2022-11-28T03:51:54;6.70;99.90
51655;DHT22;37732;53.106;7.030;2022-11-28T03:54:48;6.70;99.90
51655;DHT22;37732;53.106;7.030;2022-11-28T03:57:23;6.70;99.90
51655;DHT22;37732;53.106;7.030;2022-11-28T03:59:53;6.70;99.90
51655;DHT22;37732;53.106;7.030;2022-11-28T04:03:01;6.70;99.90
51655;DHT22;37732;53.106;7.030;2022-11-28T04:05:44;6.70;99.90
51655;DHT22;37732;53.106;7.030;2022-11-28T04:08:26;6.70;99.90
51655;DHT22;37732;53.106;7.030;2022-11-28T04:18:54;6.80;99.90
51655;DHT22;37732;53.106;7.030;2022-11-28T04:21:33;6.80;99.90
51655;DHT22;37732;53.106;7.030;2022-11-28T04:24:05;6.80;99.90
51655;DHT22;37732;53.106;7.030;2022-11-28T04:26:35;6.80;99.90
51655;DHT22;37732;53.106;7.030;2022-11-28T04:29:07;6.90;99.90
51655;DHT22;37732;53.106;7.030;2022-11-28T04:31:34;6.90;99.90
51655;DHT22;37732;53.106;7.030;2022-11-28T04:34:04;7.00;99.90
51655;DHT22;37732;53.106;7.030;2022-11-28T04:36:33;6.90;99.90
51655;DHT22;37732;53.106;7.030;2022-11-28T04:39:00;6.90;99.90
51655;DHT22;37732;53.106;7.030;2022-11-28T04:41:34;6.90;99.90
51655;DHT22;37732;53.106;7.030;2022-11-28T04:46:53;6.90;99.90
51655;DHT22;37732;53.106;7.030;2022-11-28T04:49:21;6.80;99.90
51655;DHT22;37732;53.106;7.030;2022-11-28T04:57:43;6.90;99.90
51655;DHT22;37732;53.106;7.030;2022-11-28T05:00:15;6.90;99.90
51655;DHT22;37732;53.106;7.030;2022-11-28T05:02:43;6.90;99.90
51655;DHT22;37732;53.106;7.030;2022-11-28T05:05:24;6.80;99.90
51655;DHT22;37732;53.106;7.030;2022-11-28T05:07:51;7.30;99.90
51655;DHT22;37732;53.106;7.030;2022-11-28T05:10:18;6.80;99.90
51655;DHT22;37732;53.106;7.030;2022-11-28T05:12:44;6.90;99.90
51655;DHT22;37732;53.106;7.030;2022-11-28T05:15:11;6.90;99.90
51655;DHT22;37732;53.106;7.030;2022-11-28T05:17:37;6.90;99.90
51655;DHT22;37732;53.106;7.030;2022-11-28T05:20:04;6.90;99.90
51655;DHT22;37732;53.106;7.030;2022-11-28T05:22:30;6.90;99.90
51655;DHT22;37732;53.106;7.030;2022-11-28T05:24:56;6.90;99.90
51655;DHT22;37732;53.106;7.030;2022-11-28T05:27:22;7.00;99.90
51655;DHT22;37732;53.106;7.030;2022-11-28T05:29:48;6.90;99.90
51655;DHT22;37732;53.106;7.030;2022-11-28T05:32:14;6.90;99.90
51655;DHT22;37732;53.106;7.030;2022-11-28T05:34:40;6.90;99.90
51655;DHT22;37732;53.106;7.030;2022-11-28T05:37:06;7.00;99.90
51655;DHT22;37732;53.106;7.030;2022-11-28T05:39:31;6.90;99.90
51655;DHT22;37732;53.106;7.030;2022-11-28T05:41:57;6.90;99.90
51655;DHT22;37732;53.106;7.030;2022-11-28T05:44:23;6.90;99.90
51655;DHT22;37732;53.106;7.030;2022-11-28T05:46:49;7.00;99.90
51655;DHT22;37732;53.106;7.030;2022-11-28T05:49:15;7.00;99.90
51655;DHT22;37732;53.106;7.030;2022-11-28T05:51:41;7.00;99.90
51655;DHT22;37732;53.106;7.030;2022-11-28T05:54:07;7.00;99.90
51655;DHT22;37732;53.106;7.030;2022-11-28T05:56:33;7.00;99.90
51655;DHT22;37732;53.106;7.030;2022-11-28T05:58:59;7.00;99.90
51655;DHT22;37732;53.106;7.030;2022-11-28T06:01:27;7.00;99.90
51655;DHT22;37732;53.106;7.030;2022-11-28T06:03:54;7.00;99.90
51655;DHT22;37732;53.106;7.030;2022-11-28T06:06:29;7.00;99.90
51655;DHT22;37732;53.106;7.030;2022-11-28T06:08:56;7.10;99.90
51655;DHT22;37732;53.106;7.030;2022-11-28T06:11:24;7.10;99.90
51655;DHT22;37732;53.106;7.030;2022-11-28T06:13:50;7.50;99.90
51655;DHT22;37732;53.106;7.030;2022-11-28T06:16:19;7.10;99.90
51655;DHT22;37732;53.106;7.030;2022-11-28T06:18:45;7.10;99.90
51655;DHT22;37732;53.106;7.030;2022-11-28T06:21:11;7.20;99.90
51655;DHT22;37732;53.106;7.030;2022-11-28T06:23:38;7.30;99.90
51655;DHT22;37732;53.106;7.030;2022-11-28T06:26:12;7.30;99.90
51655;DHT22;37732;53.106;7.030;2022-11-28T06:28:38;7.20;99.90
51655;DHT22;37732;53.106;7.030;2022-11-28T06:31:12;7.20;99.90
51655;DHT22;37732;53.106;7.030;2022-11-28T06:33:38;7.20;99.90
51655;DHT22;37732;53.106;7.030;2022-11-28T06:36:05;7.20;99.90
51655;DHT22;37732;53.106;7.030;2022-11-28T06:38:32;7.20;99.90
51655;DHT22;37732;53.106;7.030;2022-11-28T06:41:00;7.20;99.90
51655;DHT22;37732;53.106;7.030;2022-11-28T06:43:27;7.20;99.90
51655;DHT22;37732;53.106;7.030;2022-11-28T06:45:52;7.50;99.90
51655;DHT22;37732;53.106;7.030;2022-11-28T06:48:19;7.20;99.90
51655;DHT22;37732;53.106;7.030;2022-11-28T06:50:45;7.20;99.90
51655;DHT22;37732;53.106;7.030;2022-11-28T06:53:10;7.20;99.90
51655;DHT22;37732;53.106;7.030;2022-11-28T06:55:36;7.30;99.90
51655;DHT22;37732;53.106;7.030;2022-11-28T06:58:02;7.30;99.90
51655;DHT22;37732;53.106;7.030;2022-11-28T07:00:28;7.30;99.90
51655;DHT22;37732;53.106;7.030;2022-11-28T07:02:53;7.30;99.90
51655;DHT22;37732;53.106;7.030;2022-11-28T07:05:19;7.30;99.90
51655;DHT22;37732;53.106;7.030;2022-11-28T07:07:47;7.30;99.90
51655;DHT22;37732;53.106;7.030;2022-11-28T07:10:13;7.80;99.90
51655;DHT22;37732;53.106;7.030;2022-11-28T07:12:39;7.30;99.90
51655;DHT22;37732;53.106;7.030;2022-11-28T07:15:08;7.80;99.90
51655;DHT22;37732;53.106;7.030;2022-11-28T07:17:34;7.30;99.90
51655;DHT22;37732;53.106;7.030;2022-11-28T07:20:00;7.30;99.90
51655;DHT22;37732;53.106;7.030;2022-11-28T07:22:25;7.30;99.90
51655;DHT22;37732;53.106;7.030;2022-11-28T07:24:51;7.30;99.90
51655;DHT22;37732;53.106;7.030;2022-11-28T07:27:17;7.40;99.90
51655;DHT22;37732;53.106;7.030;2022-11-28T07:29:43;7.40;99.90
51655;DHT22;37732;53.106;7.030;2022-11-28T07:32:09;7.80;99.90
51655;DHT22;37732;53.106;7.030;2022-11-28T07:34:35;7.40;99.90
51655;DHT22;37732;53.106;7.030;2022-11-28T07:37:01;7.40;99.90
51655;DHT22;37732;53.106;7.030;2022-11-28T07:39:27;7.40;99.90
51655;DHT22;37732;53.106;7.030;2022-11-28T07:41:52;7.40;99.90
51655;DHT22;37732;53.106;7.030;2022-11-28T07:44:18;7.40;99.90
51655;DHT22;37732;53.106;7.030;2022-11-28T07:46:45;7.90;99.90
51655;DHT22;37732;53.106;7.030;2022-11-28T07:49:11;7.40;99.90
51655;DHT22;37732;53.106;7.030;2022-11-28T07:51:37;7.40;99.90
51655;DHT22;37732;53.106;7.030;2022-11-28T07:54:05;7.40;99.90
51655;DHT22;37732;53.106;7.030;2022-11-28T07:56:33;7.40;99.90
51655;DHT22;37732;53.106;7.030;2022-11-28T07:59:00;7.40;99.90
51655;DHT22;37732;53.106;7.030;2022-11-28T08:01:28;7.40;99.90
51655;DHT22;37732;53.106;7.030;2022-11-28T08:03:55;7.40;99.90
51655;DHT22;37732;53.106;7.030;2022-11-28T08:06:23;7.50;99.90
51655;DHT22;37732;53.106;7.030;2022-11-28T08:08:50;7.50;99.90
51655;DHT22;37732;53.106;7.030;2022-11-28T08:11:18;7.60;99.90
51655;DHT22;37732;53.106;7.030;2022-11-28T08:13:44;7.50;99.90
51655;DHT22;37732;53.106;7.030;2022-11-28T08:16:18;7.50;99.90
51655;DHT22;37732;53.106;7.030;2022-11-28T08:18:45;7.50;99.90
51655;DHT22;37732;53.106;7.030;2022-11-28T08:21:23;7.40;99.90
51655;DHT22;37732;53.106;7.030;2022-11-28T08:23:50;7.50;99.90
51655;DHT22;37732;53.106;7.030;2022-11-28T08:26:18;7.50;99.90
51655;DHT22;37732;53.106;7.030;2022-11-28T08:28:44;7.50;99.90
51655;DHT22;37732;53.106;7.030;2022-11-28T08:31:25;7.50;99.90
51655;DHT22;37732;53.106;7.030;2022-11-28T08:33:52;7.50;99.90
51655;DHT22;37732;53.106;7.030;2022-11-28T08:36:19;7.50;99.90
51655;DHT22;37732;53.106;7.030;2022-11-28T08:38:46;7.50;99.90
51655;DHT22;37732;53.106;7.030;2022-11-28T08:41:18;7.50;99.90
51655;DHT22;37732;53.106;7.030;2022-11-28T08:43:45;7.60;99.90
51655;DHT22;37732;53.106;7.030;2022-11-28T08:46:16;7.50;99.90
51655;DHT22;37732;53.106;7.030;2022-11-28T08:48:43;7.60;99.90
51655;DHT22;37732;53.106;7.030;2022-11-28T08:51:14;7.50;99.90
51655;DHT22;37732;53.106;7.030;2022-11-28T08:53:40;7.60;99.90
51655;DHT22;37732;53.106;7.030;2022-11-28T08:56:07;7.60;99.90
51655;DHT22;37732;53.106;7.030;2022-11-28T08:58:32;7.60;99.90
51655;DHT22;37732;53.106;7.030;2022-11-28T09:00:58;7.60;99.90
51655;DHT22;37732;53.106;7.030;2022-11-28T09:03:24;7.70;99.90
51655;DHT22;37732;53.106;7.030;2022-11-28T09:05:49;7.60;99.90
51655;DHT22;37732;53.106;7.030;2022-11-28T09:08:17;7.70;99.90
51655;DHT22;37732;53.106;7.030;2022-11-28T09:10:43;7.60;99.90
51655;DHT22;37732;53.106;7.030;2022-11-28T09:13:10;7.70;99.90
51655;DHT22;37732;53.106;7.030;2022-11-28T09:15:41;7.70;99.90
51655;DHT22;37732;53.106;7.030;2022-11-28T09:18:08;7.70;99.90
51655;DHT22;37732;53.106;7.030;2022-11-28T09:20:34;7.70;99.90
51655;DHT22;37732;53.106;7.030;2022-11-28T09:23:00;7.70;99.90
51655;DHT22;37732;53.106;7.030;2022-11-28T09:25:26;7.70;99.90
51655;DHT22;37732;53.106;7.030;2022-11-28T09:27:52;7.70;99.90
51655;DHT22;37732;53.106;7.030;2022-11-28T09:30:18;8.30;99.90
51655;DHT22;37732;53.106;7.030;2022-11-28T09:32:50;7.80;99.90
51655;DHT22;37732;53.106;7.030;2022-11-28T09:35:16;7.80;99.90
51655;DHT22;37732;53.106;7.030;2022-11-28T09:37:42;7.80;99.90
51655;DHT22;37732;53.106;7.030;2022-11-28T09:42:41;7.80;99.90
51655;DHT22;37732;53.106;7.030;2022-11-28T09:45:21;7.80;99.90
51655;DHT22;37732;53.106;7.030;2022-11-28T09:47:53;7.80;99.90
51655;DHT22;37732;53.106;7.030;2022-11-28T09:50:27;7.80;99.90
51655;DHT22;37732;53.106;7.030;2022-11-28T09:53:20;7.80;99.90
51655;DHT22;37732;53.106;7.030;2022-11-28T09:55:55;7.90;99.90
51655;DHT22;37732;53.106;7.030;2022-11-28T09:58:47;7.90;99.90
51655;DHT22;37732;53.106;7.030;2022-11-28T10:14:40;7.90;99.90
51655;DHT22;37732;53.106;7.030;2022-11-28T10:20:31;7.90;99.90
51655;DHT22;37732;53.106;7.030;2022-11-28T10:23:17;8.00;99.90
51655;DHT22;37732;53.106;7.030;2022-11-28T10:26:03;8.00;99.90
51655;DHT22;37732;53.106;7.030;2022-11-28T10:28:42;8.00;99.90
51655;DHT22;37732;53.106;7.030;2022-11-28T10:39:12;8.00;99.90
51655;DHT22;37732;53.106;7.030;2022-11-28T10:41:48;8.00;99.90
51655;DHT22;37732;53.106;7.030;2022-11-28T11:00:17;8.10;99.90
51655;DHT22;37732;53.106;7.030;2022-11-28T11:02:52;8.10;99.90
51655;DHT22;37732;53.106;7.030;2022-11-28T11:05:39;8.00;99.90
51655;DHT22;37732;53.106;7.030;2022-11-28T11:08:44;8.10;99.90
51655;DHT22;37732;53.106;7.030;2022-11-28T11:11:32;8.10;99.90
51655;DHT22;37732;53.106;7.030;2022-11-28T11:14:09;8.10;99.90
51655;DHT22;37732;53.106;7.030;2022-11-28T11:16:53;8.00;99.90
51655;DHT22;37732;53.106;7.030;2022-11-28T11:19:50;8.10;99.90
51655;DHT22;37732;53.106;7.030;2022-11-28T11:22:24;8.10;99.90
51655;DHT22;37732;53.106;7.030;2022-11-28T11:25:14;8.10;99.90
51655;DHT22;37732;53.106;7.030;2022-11-28T11:27:52;8.10;99.90
51655;DHT22;37732;53.106;7.030;2022-11-28T11:30:36;8.10;99.90
51655;DHT22;37732;53.106;7.030;2022-11-28T11:33:14;8.10;99.90
51655;DHT22;37732;53.106;7.030;2022-11-28T11:35:43;8.10;99.90
51655;DHT22;37732;53.106;7.030;2022-11-28T11:40:49;8.10;99.90
51655;DHT22;37732;53.106;7.030;2022-11-28T11:45:46;8.30;99.90
51655;DHT22;37732;53.106;7.030;2022-11-28T11:48:12;8.10;99.90
51655;DHT22;37732;53.106;7.030;2022-11-28T11:50:38;8.20;99.90
51655;DHT22;37732;53.106;7.030;2022-11-28T11:53:17;8.10;99.90
51655;DHT22;37732;53.106;7.030;2022-11-28T11:55:48;8.10;99.90
51655;DHT22;37732;53.106;7.030;2022-11-28T11:58:20;8.10;99.90
51655;DHT22;37732;53.106;7.030;2022-11-28T12:00:48;8.10;99.90
51655;DHT22;37732;53.106;7.030;2022-11-28T12:06:03;8.10;99.90
51655;DHT22;37732;53.106;7.030;2022-11-28T12:08:48;8.10;99.90
51655;DHT22;37732;53.106;7.030;2022-11-28T12:11:20;8.10;99.90
51655;DHT22;37732;53.106;7.030;2022-11-28T12:13:49;8.10;99.90
51655;DHT22;37732;53.106;7.030;2022-11-28T12:22:26;8.10;99.90
51655;DHT22;37732;53.106;7.030;2022-11-28T12:36:32;8.10;99.90
51655;DHT22;37732;53.106;7.030;2022-11-28T12:39:27;8.20;99.90
51655;DHT22;37732;53.106;7.030;2022-11-28T12:42:10;8.20;99.90
51655;DHT22;37732;53.106;7.030;2022-11-28T12:47:37;8.20;99.90
51655;DHT22;37732;53.106;7.030;2022-11-28T12:56:48;8.20;99.90
51655;DHT22;37732;53.106;7.030;2022-11-28T12:58:57;8.20;99.90
51655;DHT22;37732;53.106;7.030;2022-11-28T13:15:22;8.20;99.90
51655;DHT22;37732;53.106;7.030;2022-11-28T13:18:07;8.20;99.90
51655;DHT22;37732;53.106;7.030;2022-11-28T13:20:44;8.20;99.90
51655;DHT22;37732;53.106;7.030;2022-11-28T13:23:33;8.20;99.90
51655;DHT22;37732;53.106;7.030;2022-11-28T13:28:43;8.20;99.90
51655;DHT22;37732;53.106;7.030;2022-11-28T13:31:26;8.20;99.90
51655;DHT22;37732;53.106;7.030;2022-11-28T13:33:54;8.30;99.90
51655;DHT22;37732;53.106;7.030;2022-11-28T13:39:02;8.30;99.90
51655;DHT22;37732;53.106;7.030;2022-11-28T13:46:32;8.30;99.90
51655;DHT22;37732;53.106;7.030;2022-11-28T13:49:01;8.30;99.90
51655;DHT22;37732;53.106;7.030;2022-11-28T13:51:32;8.30;99.90
51655;DHT22;37732;53.106;7.030;2022-11-28T13:56:47;8.30;99.90
51655;DHT22;37732;53.106;7.030;2022-11-28T13:59:28;8.30;99.90
51655;DHT22;37732;53.106;7.030;2022-11-28T14:01:59;8.30;99.90
51655;DHT22;37732;53.106;7.030;2022-11-28T14:04:27;8.30;99.90
51655;DHT22;37732;53.106;7.030;2022-11-28T14:07:05;8.50;99.90
51655;DHT22;37732;53.106;7.030;2022-11-28T14:13:19;8.30;99.90
51655;DHT22;37732;53.106;7.030;2022-11-28T14:28:56;8.30;99.90
51655;DHT22;37732;53.106;7.030;2022-11-28T14:31:35;8.30;99.90
51655;DHT22;37732;53.106;7.030;2022-11-28T14:34:05;8.30;99.90
51655;DHT22;37732;53.106;7.030;2022-11-28T14:36:37;8.20;99.90
51655;DHT22;37732;53.106;7.030;2022-11-28T14:52:29;8.20;99.90
51655;DHT22;37732;53.106;7.030;2022-11-28T14:54:54;8.20;99.90
51655;DHT22;37732;53.106;7.030;2022-11-28T14:57:29;8.20;99.90
51655;DHT22;37732;53.106;7.030;2022-11-28T15:00:02;8.20;99.90
51655;DHT22;37732;53.106;7.030;2022-11-28T15:13:33;8.10;99.90
51655;DHT22;37732;53.106;7.030;2022-11-28T15:16:09;8.10;99.90
51655;DHT22;37732;53.106;7.030;2022-11-28T15:18:38;8.10;99.90
51655;DHT22;37732;53.106;7.030;2022-11-28T15:21:11;8.10;99.90
51655;DHT22;37732;53.106;7.030;2022-11-28T15:23:38;8.10;99.90
51655;DHT22;37732;53.106;7.030;2022-11-28T15:26:04;8.00;99.90
51655;DHT22;37732;53.106;7.030;2022-11-28T15:28:31;8.00;99.90
51655;DHT22;37732;53.106;7.030;2022-11-28T15:31:01;8.20;99.90
51655;DHT22;37732;53.106;7.030;2022-11-28T15:33:28;8.10;99.90
51655;DHT22;37732;53.106;7.030;2022-11-28T15:35:58;8.10;99.90
51655;DHT22;37732;53.106;7.030;2022-11-28T15:38:26;8.40;99.90
51655;DHT22;37732;53.106;7.030;2022-11-28T15:40:53;8.00;99.90
51655;DHT22;37732;53.106;7.030;2022-11-28T15:43:20;8.00;99.90
51655;DHT22;37732;53.106;7.030;2022-11-28T15:45:55;8.10;99.90
51655;DHT22;37732;53.106;7.030;2022-11-28T15:48:38;8.00;99.90
51655;DHT22;37732;53.106;7.030;2022-11-28T15:51:29;8.00;99.90
51655;DHT22;37732;53.106;7.030;2022-11-28T15:53:55;8.00;99.90
51655;DHT22;37732;53.106;7.030;2022-11-28T15:56:22;8.00;99.90
51655;DHT22;37732;53.106;7.030;2022-11-28T15:58:48;7.90;99.90
51655;DHT22;37732;53.106;7.030;2022-11-28T16:01:20;8.50;99.90
51655;DHT22;37732;53.106;7.030;2022-11-28T16:03:56;7.90;99.90
51655;DHT22;37732;53.106;7.030;2022-11-28T16:06:25;8.00;99.90
51655;DHT22;37732;53.106;7.030;2022-11-28T16:08:59;7.90;99.90
51655;DHT22;37732;53.106;7.030;2022-11-28T16:11:27;8.00;99.90
51655;DHT22;37732;53.106;7.030;2022-11-28T16:13:57;8.00;99.90
51655;DHT22;37732;53.106;7.030;2022-11-28T16:16:26;8.00;99.90
51655;DHT22;37732;53.106;7.030;2022-11-28T16:18:57;8.00;99.90
51655;DHT22;37732;53.106;7.030;2022-11-28T16:21:27;8.00;99.90
51655;DHT22;37732;53.106;7.030;2022-11-28T16:23:54;8.00;99.90
51655;DHT22;37732;53.106;7.030;2022-11-28T16:26:30;8.00;99.90
51655;DHT22;37732;53.106;7.030;2022-11-28T16:31:33;8.00;99.90
51655;DHT22;37732;53.106;7.030;2022-11-28T16:34:00;8.00;99.90
51655;DHT22;37732;53.106;7.030;2022-11-28T16:36:30;8.00;99.90
51655;DHT22;37732;53.106;7.030;2022-11-28T16:41:38;8.00;99.90
51655;DHT22;37732;53.106;7.030;2022-11-28T16:44:10;8.00;99.90
51655;DHT22;37732;53.106;7.030;2022-11-28T16:46:52;8.00;99.90
51655;DHT22;37732;53.106;7.030;2022-11-28T16:54:51;8.00;99.90
51655;DHT22;37732;53.106;7.030;2022-11-28T16:57:18;8.00;99.90
51655;DHT22;37732;53.106;7.030;2022-11-28T16:59:45;8.00;99.90
51655;DHT22;37732;53.106;7.030;2022-11-28T17:02:22;8.00;99.90
51655;DHT22;37732;53.106;7.030;2022-11-28T17:04:50;8.00;99.90
51655;DHT22;37732;53.106;7.030;2022-11-28T17:07:21;7.90;99.90
51655;DHT22;37732;53.106;7.030;2022-11-28T17:09:48;8.00;99.90
51655;DHT22;37732;53.106;7.030;2022-11-28T17:12:27;8.00;99.90
51655;DHT22;37732;53.106;7.030;2022-11-28T17:14:54;8.00;99.90
51655;DHT22;37732;53.106;7.030;2022-11-28T17:17:21;8.00;99.90
51655;DHT22;37732;53.106;7.030;2022-11-28T17:19:48;8.10;99.90
51655;DHT22;37732;53.106;7.030;2022-11-28T17:22:16;8.00;99.90
51655;DHT22;37732;53.106;7.030;2022-11-28T17:24:43;8.00;99.90
51655;DHT22;37732;53.106;7.030;2022-11-28T17:27:11;8.00;99.90
51655;DHT22;37732;53.106;7.030;2022-11-28T17:29:37;8.00;99.90
51655;DHT22;37732;53.106;7.030;2022-11-28T17:32:03;8.10;99.90
51655;DHT22;37732;53.106;7.030;2022-11-28T17:34:32;8.00;99.90
51655;DHT22;37732;53.106;7.030;2022-11-28T17:36:59;8.00;99.90
51655;DHT22;37732;53.106;7.030;2022-11-28T17:39:25;8.00;99.90
51655;DHT22;37732;53.106;7.030;2022-11-28T17:41:55;8.00;99.90
51655;DHT22;37732;53.106;7.030;2022-11-28T17:47:43;8.00;99.90
51655;DHT22;37732;53.106;7.030;2022-11-28T17:50:09;8.00;99.90
51655;DHT22;37732;53.106;7.030;2022-11-28T17:52:36;8.00;99.90
51655;DHT22;37732;53.106;7.030;2022-11-28T17:55:01;8.00;99.90
51655;DHT22;37732;53.106;7.030;2022-11-28T17:57:29;8.00;99.90
51655;DHT22;37732;53.106;7.030;2022-11-28T17:59:55;8.00;99.90
51655;DHT22;37732;53.106;7.030;2022-11-28T18:02:21;8.00;99.90
51655;DHT22;37732;53.106;7.030;2022-11-28T18:04:47;8.10;99.90
51655;DHT22;37732;53.106;7.030;2022-11-28T18:07:12;8.10;99.90
51655;DHT22;37732;53.106;7.030;2022-11-28T18:09:38;8.00;99.90
51655;DHT22;37732;53.106;7.030;2022-11-28T18:12:05;8.00;99.90
51655;DHT22;37732;53.106;7.030;2022-11-28T18:14:31;8.00;99.90
51655;DHT22;37732;53.106;7.030;2022-11-28T18:16:56;8.00;99.90
51655;DHT22;37732;53.106;7.030;2022-11-28T18:19:22;8.00;99.90
51655;DHT22;37732;53.106;7.030;2022-11-28T18:21:48;8.00;99.90
51655;DHT22;37732;53.106;7.030;2022-11-28T18:24:14;8.00;99.90
51655;DHT22;37732;53.106;7.030;2022-11-28T18:26:40;8.00;99.90
51655;DHT22;37732;53.106;7.030;2022-11-28T18:29:05;8.00;99.90
51655;DHT22;37732;53.106;7.030;2022-11-28T18:31:32;8.70;99.90
51655;DHT22;37732;53.106;7.030;2022-11-28T18:34:02;8.00;99.90
51655;DHT22;37732;53.106;7.030;2022-11-28T18:36:30;8.00;99.90
51655;DHT22;37732;53.106;7.030;2022-11-28T18:38:58;8.00;99.90
51655;DHT22;37732;53.106;7.030;2022-11-28T18:41:24;8.00;99.90
51655;DHT22;37732;53.106;7.030;2022-11-28T18:43:58;8.00;99.90
51655;DHT22;37732;53.106;7.030;2022-11-28T18:46:25;8.00;99.90
51655;DHT22;37732;53.106;7.030;2022-11-28T18:48:51;8.00;99.90
51655;DHT22;37732;53.106;7.030;2022-11-28T18:51:28;8.00;99.90
51655;DHT22;37732;53.106;7.030;2022-11-28T18:53:54;8.00;99.90
51655;DHT22;37732;53.106;7.030;2022-11-28T18:56:21;8.00;99.90
51655;DHT22;37732;53.106;7.030;2022-11-28T18:58:49;8.00;99.90
51655;DHT22;37732;53.106;7.030;2022-11-28T19:01:21;8.00;99.90
51655;DHT22;37732;53.106;7.030;2022-11-28T19:03:49;8.00;99.90
51655;DHT22;37732;53.106;7.030;2022-11-28T19:06:15;8.00;99.90
51655;DHT22;37732;53.106;7.030;2022-11-28T19:08:41;8.00;99.90
51655;DHT22;37732;53.106;7.030;2022-11-28T19:11:13;8.40;99.90
51655;DHT22;37732;53.106;7.030;2022-11-28T19:13:43;8.00;99.90
51655;DHT22;37732;53.106;7.030;2022-11-28T19:16:18;8.00;99.90
51655;DHT22;37732;53.106;7.030;2022-11-28T19:18:44;8.00;99.90
51655;DHT22;37732;53.106;7.030;2022-11-28T19:21:14;8.00;99.90
51655;DHT22;37732;53.106;7.030;2022-11-28T19:23:40;8.00;99.90
51655;DHT22;37732;53.106;7.030;2022-11-28T19:26:09;8.00;99.90
51655;DHT22;37732;53.106;7.030;2022-11-28T19:28:36;8.00;99.90
51655;DHT22;37732;53.106;7.030;2022-11-28T19:31:15;8.00;99.90
51655;DHT22;37732;53.106;7.030;2022-11-28T19:33:42;8.00;99.90
51655;DHT22;37732;53.106;7.030;2022-11-28T19:36:11;8.00;99.90
51655;DHT22;37732;53.106;7.030;2022-11-28T19:38:37;8.00;99.90
51655;DHT22;37732;53.106;7.030;2022-11-28T19:41:10;8.00;99.90